createdAt,value
2019-02-18T00:00:05.661Z,101833.19
2019-02-18T00:02:34.178Z,101834.75
2019-02-18T00:05:02.681Z,101835.26
2019-02-18T00:07:31.905Z,101833.10
2019-02-18T00:10:00.395Z,101836.09
2019-02-18T00:12:28.926Z,101838.20
2019-02-18T00:14:57.545Z,101839.47
2019-02-18T00:17:26.174Z,101838.97
2019-02-18T00:19:54.688Z,101833.61
2019-02-18T00:22:23.317Z,101839.81
2019-02-18T00:24:51.885Z,101837.63
2019-02-18T00:27:20.370Z,101833.30
2019-02-18T00:29:48.923Z,101836.27
2019-02-18T00:32:17.449Z,101836.00
2019-02-18T00:34:46.059Z,101838.46
2019-02-18T00:37:23.906Z,101841.97
2019-02-18T00:39:45.111Z,101842.75
2019-02-18T00:42:13.745Z,101837.89
2019-02-18T00:44:42.435Z,101841.13
2019-02-18T00:47:10.947Z,101844.36
2019-02-18T00:49:39.494Z,101839.55
2019-02-18T00:52:08.071Z,101837.95
2019-02-18T00:54:36.620Z,101842.03
2019-02-18T00:57:05.146Z,101844.77
2019-02-18T00:59:33.747Z,101840.17
2019-02-18T01:02:02.345Z,101844.49
2019-02-18T01:04:30.896Z,101841.26
2019-02-18T01:06:59.480Z,101842.01
2019-02-18T01:09:28.162Z,101840.92
2019-02-18T01:11:56.798Z,101842.27
2019-02-18T01:14:25.397Z,101838.97
2019-02-18T01:16:53.982Z,101836.84
2019-02-18T01:19:22.619Z,101844.13
2019-02-18T01:21:51.124Z,101841.97
2019-02-18T01:24:19.688Z,101840.78
2019-02-18T01:26:48.321Z,101836.50
2019-02-18T01:29:16.859Z,101835.69
2019-02-18T01:31:45.438Z,101835.16
2019-02-18T01:34:13.947Z,101832.95
2019-02-18T01:36:42.553Z,101830.76
2019-02-18T01:39:11.144Z,101831.30
2019-02-18T01:41:39.672Z,101834.77
2019-02-18T01:44:08.577Z,101834.76
2019-02-18T01:46:37.153Z,101837.14
2019-02-18T01:49:05.771Z,101834.36
2019-02-18T01:51:34.250Z,101831.97
2019-02-18T01:54:02.719Z,101830.85
2019-02-18T01:56:31.330Z,101835.39
2019-02-18T01:58:59.905Z,101830.03
2019-02-18T02:01:28.526Z,101828.64
2019-02-18T02:03:57.067Z,101822.48
2019-02-18T02:06:25.853Z,101822.45
2019-02-18T02:08:54.330Z,101814.36
2019-02-18T02:11:22.975Z,101817.05
2019-02-18T02:13:51.581Z,101818.18
2019-02-18T02:16:20.213Z,101814.72
2019-02-18T02:18:48.875Z,101813.73
2019-02-18T02:21:17.375Z,101818.05
2019-02-18T02:23:45.984Z,101816.20
2019-02-18T02:26:15.539Z,101812.46
2019-02-18T02:28:44.165Z,101814.61
2019-02-18T02:31:12.640Z,101812.19
2019-02-18T02:33:41.262Z,101808.95
2019-02-18T02:36:09.921Z,101813.53
2019-02-18T02:38:38.389Z,101805.72
2019-02-18T02:41:06.976Z,101800.35
2019-02-18T02:43:35.523Z,101799.01
2019-02-18T02:46:04.108Z,101804.13
2019-02-18T02:48:32.612Z,101804.91
2019-02-18T02:51:01.083Z,101798.97
2019-02-18T02:53:29.663Z,101798.12
2019-02-18T02:55:58.215Z,101800.75
2019-02-18T02:58:26.758Z,101796.73
2019-02-18T03:00:55.378Z,101803.98
2019-02-18T03:03:23.919Z,101805.87
2019-02-18T03:05:52.490Z,101799.39
2019-02-18T03:08:21.181Z,101802.58
2019-02-18T03:10:49.759Z,101794.73
2019-02-18T03:13:18.274Z,101795.76
2019-02-18T03:15:46.869Z,101794.37
2019-02-18T03:18:15.424Z,101795.17
2019-02-18T03:20:43.959Z,101789.51
2019-02-18T03:23:12.478Z,101793.01
2019-02-18T03:25:40.986Z,101791.34
2019-02-18T03:28:18.887Z,101796.14
2019-02-18T03:30:54.368Z,101789.61
2019-02-18T03:33:47.604Z,101784.76
2019-02-18T03:36:16.261Z,101784.76
2019-02-18T03:38:44.860Z,101780.75
2019-02-18T03:41:13.365Z,101780.75
2019-02-18T03:43:41.968Z,101788.33
2019-02-18T03:46:10.496Z,101785.64
2019-02-18T03:48:39.050Z,101788.92
2019-02-18T03:51:07.695Z,101789.95
2019-02-18T03:53:36.315Z,101783.42
2019-02-18T03:56:04.896Z,101783.91
2019-02-18T03:58:33.484Z,101789.55
2019-02-18T04:01:02.070Z,101788.42
2019-02-18T04:03:30.680Z,101792.70
2019-02-18T04:05:59.353Z,101786.19
2019-02-18T04:08:27.936Z,101787.98
2019-02-18T04:10:56.515Z,101782.80
2019-02-18T04:13:25.124Z,101788.22
2019-02-18T04:15:53.698Z,101784.45
2019-02-18T04:18:22.321Z,101783.17
2019-02-18T04:20:50.920Z,101784.52
2019-02-18T04:23:19.445Z,101780.52
2019-02-18T04:25:48.075Z,101782.89
2019-02-18T04:28:18.571Z,101786.13
2019-02-18T04:30:47.118Z,101776.37
2019-02-18T04:33:15.557Z,101779.59
2019-02-18T04:35:44.075Z,101783.02
2019-02-18T04:38:12.648Z,101779.70
2019-02-18T04:40:41.148Z,101780.27
2019-02-18T04:43:09.765Z,101776.94
2019-02-18T04:45:38.270Z,101778.75
2019-02-18T04:48:09.220Z,101778.56
2019-02-18T04:50:37.132Z,101779.56
2019-02-18T04:53:05.786Z,101786.55
2019-02-18T04:55:34.230Z,101784.99
2019-02-18T04:58:05.855Z,101780.16
2019-02-18T05:00:32.936Z,101790.03
2019-02-18T05:03:01.535Z,101781.09
2019-02-18T05:05:30.083Z,101785.58
2019-02-18T05:07:58.674Z,101781.50
2019-02-18T05:10:27.314Z,101776.16
2019-02-18T05:12:55.852Z,101779.13
2019-02-18T05:15:24.413Z,101779.13
2019-02-18T05:17:53.044Z,101776.68
2019-02-18T05:20:21.594Z,101779.09
2019-02-18T05:22:50.120Z,101778.56
2019-02-18T05:25:18.698Z,101774.82
2019-02-18T05:27:47.324Z,101779.85
2019-02-18T05:30:16.364Z,101776.77
2019-02-18T05:32:44.942Z,101774.64
2019-02-18T05:35:13.468Z,101779.73
2019-02-18T05:37:42.084Z,101773.53
2019-02-18T05:40:10.662Z,101774.25
2019-02-18T05:42:39.256Z,101774.98
2019-02-18T05:45:08.980Z,101768.98
2019-02-18T05:47:37.608Z,101768.01
2019-02-18T05:50:07.936Z,101773.44
2019-02-18T05:52:36.596Z,101768.09
2019-02-18T05:55:06.996Z,101769.71
2019-02-18T05:57:35.573Z,101772.67
2019-02-18T06:00:06.112Z,101771.05
2019-02-18T06:02:34.709Z,101772.55
2019-02-18T06:05:03.327Z,101775.16
2019-02-18T06:07:31.836Z,101775.16
2019-02-18T06:10:00.451Z,101767.17
2019-02-18T06:12:44.437Z,101767.15
2019-02-18T06:18:53.816Z,101760.73
2019-02-18T06:21:22.375Z,101761.97
2019-02-18T06:23:50.860Z,101761.24
2019-02-18T06:26:19.442Z,101754.98
2019-02-18T06:28:48.038Z,101750.34
2019-02-18T06:31:16.724Z,101745.83
2019-02-18T06:33:45.239Z,101742.37
2019-02-18T06:36:13.875Z,101748.28
2019-02-18T06:38:42.567Z,101747.02
2019-02-18T06:41:11.144Z,101749.63
2019-02-18T06:43:39.811Z,101753.38
2019-02-18T06:46:16.044Z,101755.23
2019-02-18T06:48:46.086Z,101751.36
2019-02-18T06:51:16.967Z,101752.06
2019-02-18T06:53:44.836Z,101747.55
2019-02-18T06:56:13.435Z,101750.80
2019-02-18T06:58:43.563Z,101751.41
2019-02-18T07:01:19.695Z,101755.51
2019-02-18T07:03:52.858Z,101756.59
2019-02-18T07:06:35.130Z,101756.59
2019-02-18T07:09:11.124Z,101769.83
2019-02-18T07:11:44.342Z,101758.75
2019-02-18T07:14:12.842Z,101764.71
2019-02-18T07:16:41.409Z,101769.02
2019-02-18T07:19:10.010Z,101768.77
2019-02-18T07:21:38.599Z,101772.11
2019-02-18T07:24:07.249Z,101771.80
2019-02-18T07:26:35.690Z,101764.23
2019-02-18T07:29:04.307Z,101769.63
2019-02-18T07:31:32.884Z,101769.36
2019-02-18T07:34:01.447Z,101768.63
2019-02-18T07:36:29.898Z,101764.09
2019-02-18T07:38:58.685Z,101769.54
2019-02-18T07:41:27.281Z,101765.36
2019-02-18T07:43:55.949Z,101758.41
2019-02-18T07:46:24.543Z,101756.63
2019-02-18T07:48:53.085Z,101759.98
2019-02-18T07:51:21.710Z,101755.48
2019-02-18T07:53:50.309Z,101755.57
2019-02-18T07:56:19.017Z,101751.60
2019-02-18T07:58:47.581Z,101754.38
2019-02-18T08:01:16.209Z,101750.89
2019-02-18T08:03:44.802Z,101751.18
2019-02-18T08:06:13.348Z,101743.88
2019-02-18T08:08:42.076Z,101743.00
2019-02-18T08:11:10.635Z,101742.95
2019-02-18T08:13:39.207Z,101746.88
2019-02-18T08:16:08.543Z,101742.13
2019-02-18T08:18:37.099Z,101742.17
2019-02-18T08:21:05.779Z,101737.30
2019-02-18T08:23:34.332Z,101734.38
2019-02-18T08:26:05.648Z,101732.80
2019-02-18T08:28:34.136Z,101723.84
2019-02-18T08:31:02.716Z,101721.69
2019-02-18T08:33:31.208Z,101718.23
2019-02-18T08:35:59.749Z,101718.23
2019-02-18T08:38:29.012Z,101718.20
2019-02-18T08:40:57.551Z,101712.20
2019-02-18T08:43:26.148Z,101715.16
2019-02-18T08:45:54.769Z,101708.24
2019-02-18T08:48:24.186Z,101712.71
2019-02-18T08:50:52.878Z,101707.00
2019-02-18T08:53:21.491Z,101707.55
2019-02-18T08:55:50.098Z,101710.20
2019-02-18T08:58:18.639Z,101700.36
2019-02-18T09:00:47.172Z,101703.26
2019-02-18T09:03:15.718Z,101704.63
2019-02-18T09:05:44.376Z,101702.16
2019-02-18T09:08:12.947Z,101699.30
2019-02-18T09:10:41.592Z,101692.83
2019-02-18T09:13:10.236Z,101684.33
2019-02-18T09:15:38.798Z,101685.00
2019-02-18T09:18:07.435Z,101683.11
2019-02-18T09:20:35.968Z,101683.49
2019-02-18T09:23:06.227Z,101676.62
2019-02-18T09:25:36.388Z,101687.53
2019-02-18T09:28:05.031Z,101683.31
2019-02-18T09:30:35.243Z,101686.11
2019-02-18T09:33:03.917Z,101681.34
2019-02-18T09:35:32.413Z,101685.95
2019-02-18T09:38:01.082Z,101683.04
2019-02-18T09:40:29.793Z,101680.87
2019-02-18T09:42:58.363Z,101683.38
2019-02-18T09:45:26.913Z,101677.84
2019-02-18T09:47:55.496Z,101681.62
2019-02-18T09:50:24.045Z,101679.60
2019-02-18T09:52:52.659Z,101684.12
2019-02-18T09:55:21.284Z,101680.02
2019-02-18T09:57:49.840Z,101687.67
2019-02-18T10:00:18.467Z,101684.05
2019-02-18T10:02:47.169Z,101675.19
2019-02-18T10:05:15.742Z,101671.14
2019-02-18T10:07:44.221Z,101669.22
2019-02-18T10:10:12.794Z,101663.66
2019-02-18T10:12:41.251Z,101663.59
2019-02-18T10:15:11.438Z,101650.98
2019-02-18T10:17:40.060Z,101657.22
2019-02-18T10:20:10.950Z,101658.28
2019-02-18T10:22:39.574Z,101648.11
2019-02-18T10:25:10.871Z,101644.58
2019-02-18T10:27:39.547Z,101647.03
2019-02-18T10:30:11.826Z,101647.73
2019-02-18T10:32:40.412Z,101641.45
2019-02-18T10:35:11.331Z,101636.38
2019-02-18T10:37:40.762Z,101636.75
2019-02-18T10:40:10.619Z,101640.08
2019-02-18T10:42:39.229Z,101634.22
2019-02-18T10:45:12.737Z,101638.47
2019-02-18T10:47:41.355Z,101630.89
2019-02-18T10:50:11.265Z,101629.16
2019-02-18T10:52:40.091Z,101625.17
2019-02-18T10:55:10.260Z,101623.25
2019-02-18T10:57:41.742Z,101615.41
2019-02-18T11:00:20.776Z,101613.42
2019-02-18T11:02:49.358Z,101616.44
2019-02-18T11:05:18.007Z,101614.85
2019-02-18T11:07:46.659Z,101610.95
2019-02-18T11:10:16.414Z,101610.20
2019-02-18T11:12:47.480Z,101607.70
2019-02-18T11:15:15.882Z,101612.45
2019-02-18T11:17:44.810Z,101609.34
2019-02-18T11:20:14.246Z,101599.58
2019-02-18T11:22:42.757Z,101600.05
2019-02-18T11:25:12.896Z,101601.52
2019-02-18T11:27:41.557Z,101604.28
2019-02-18T11:30:18.499Z,101596.61
2019-02-18T11:32:47.394Z,101591.69
2019-02-18T11:35:16.070Z,101590.55
2019-02-18T11:37:44.619Z,101584.70
2019-02-18T11:40:18.163Z,101580.09
2019-02-18T11:42:46.753Z,101572.05
2019-02-18T11:45:16.608Z,101571.11
2019-02-18T11:47:45.221Z,101568.57
2019-02-18T11:50:16.799Z,101561.05
2019-02-18T11:52:45.435Z,101553.52
2019-02-18T11:55:14.654Z,101558.30
2019-02-18T11:57:43.549Z,101551.20
2019-02-18T12:00:14.416Z,101546.86
2019-02-18T12:02:43.105Z,101544.06
2019-02-18T12:05:11.924Z,101542.23
2019-02-18T12:07:40.494Z,101542.23
2019-02-18T12:10:11.212Z,101540.83
2019-02-18T12:12:40.219Z,101540.16
2019-02-18T12:15:15.626Z,101534.50
2019-02-18T12:17:44.240Z,101531.75
2019-02-18T12:20:14.166Z,101531.34
2019-02-18T12:22:42.881Z,101527.02
2019-02-18T12:25:12.789Z,101518.75
2019-02-18T12:27:41.676Z,101515.95
2019-02-18T12:30:15.631Z,101514.56
2019-02-18T12:32:44.329Z,101506.30
2019-02-18T12:35:13.075Z,101506.89
2019-02-18T12:37:41.861Z,101508.41
2019-02-18T12:40:14.946Z,101502.89
2019-02-18T12:42:43.678Z,101499.19
2019-02-18T12:45:13.009Z,101493.92
2019-02-18T12:47:41.696Z,101486.33
2019-02-18T12:50:11.694Z,101480.41
2019-02-18T12:52:40.492Z,101474.93
2019-02-18T12:55:10.723Z,101475.53
2019-02-18T12:57:39.774Z,101468.39
2019-02-18T13:00:11.067Z,101458.38
2019-02-18T13:02:44.106Z,101460.05
2019-02-18T13:05:10.673Z,101453.48
2019-02-18T13:07:39.385Z,101449.58
2019-02-18T13:10:09.676Z,101438.83
2019-02-18T13:12:38.306Z,101434.61
2019-02-18T13:15:12.624Z,101436.47
2019-02-18T13:17:42.800Z,101423.95
2019-02-18T13:20:11.654Z,101422.50
2019-02-18T13:22:40.366Z,101418.11
2019-02-18T13:25:09.875Z,101413.84
2019-02-18T13:27:38.529Z,101404.99
2019-02-18T13:30:12.840Z,101402.06
2019-02-18T13:32:41.476Z,101403.55
2019-02-18T13:35:10.169Z,101392.84
2019-02-18T13:37:38.855Z,101396.31
2019-02-18T13:40:08.174Z,101382.13
2019-02-18T13:42:36.793Z,101380.32
2019-02-18T13:45:07.685Z,101376.70
2019-02-18T13:47:36.379Z,101367.30
2019-02-18T13:50:08.081Z,101364.55
2019-02-18T13:52:36.737Z,101364.30
2019-02-18T13:55:07.770Z,101361.52
2019-02-18T13:57:36.401Z,101356.34
2019-02-18T14:00:08.255Z,101348.67
2019-02-18T14:02:42.152Z,101344.95
2019-02-18T14:05:10.744Z,101350.62
2019-02-18T14:07:39.363Z,101349.47
2019-02-18T14:10:08.148Z,101343.53
2019-02-18T14:12:37.152Z,101339.59
2019-02-18T14:15:09.660Z,101347.09
2019-02-18T14:17:38.482Z,101344.55
2019-02-18T14:20:14.794Z,101338.87
2019-02-18T14:22:43.437Z,101334.32
2019-02-18T14:25:12.559Z,101332.30
2019-02-18T14:27:41.864Z,101329.73
2019-02-18T14:30:15.605Z,101330.38
2019-02-18T14:32:44.337Z,101328.10
2019-02-18T14:35:14.035Z,101330.95
2019-02-18T14:37:42.663Z,101321.26
2019-02-18T14:40:12.919Z,101323.52
2019-02-18T14:42:41.552Z,101320.49
2019-02-18T14:45:10.938Z,101320.11
2019-02-18T14:47:39.702Z,101317.47
2019-02-18T14:50:09.813Z,101322.70
2019-02-18T14:52:38.469Z,101320.72
2019-02-18T14:55:08.868Z,101320.72
2019-02-18T14:57:38.203Z,101317.22
2019-02-18T15:00:14.415Z,101318.84
2019-02-18T15:02:43.166Z,101322.12
2019-02-18T15:05:11.758Z,101319.84
2019-02-18T15:07:40.756Z,101321.45
2019-02-18T15:10:10.987Z,101325.52
2019-02-18T15:12:39.776Z,101324.03
2019-02-18T15:15:08.480Z,101319.72
2019-02-18T15:17:37.112Z,101323.59
2019-02-18T15:20:07.898Z,101330.02
2019-02-18T15:22:36.800Z,101327.73
2019-02-18T15:25:07.903Z,101321.37
2019-02-18T15:27:36.624Z,101320.19
2019-02-18T15:30:08.413Z,101325.74
2019-02-18T15:32:37.040Z,101329.34
2019-02-18T15:35:05.733Z,101328.06
2019-02-18T15:37:34.613Z,101323.42
2019-02-18T15:40:04.121Z,101324.67
2019-02-18T15:42:32.791Z,101316.23
2019-02-18T15:45:01.413Z,101317.82
2019-02-18T15:47:30.051Z,101311.89
2019-02-18T15:49:58.627Z,101308.48
2019-02-18T15:52:27.771Z,101310.53
2019-02-18T15:54:56.274Z,101304.59
2019-02-18T15:57:24.930Z,101307.69
2019-02-18T15:59:53.574Z,101301.64
2019-02-18T16:02:22.196Z,101308.05
2019-02-18T16:04:50.707Z,101308.28
2019-02-18T16:07:20.868Z,101306.46
2019-02-18T16:09:49.502Z,101302.13
2019-02-18T16:12:18.135Z,101301.20
2019-02-18T16:14:46.712Z,101294.12
2019-02-18T16:17:15.386Z,101306.00
2019-02-18T16:19:43.994Z,101299.92
2019-02-18T16:22:12.673Z,101294.65
2019-02-18T16:24:41.583Z,101294.76
2019-02-18T16:27:10.227Z,101300.80
2019-02-18T16:29:38.796Z,101293.36
2019-02-18T16:32:07.418Z,101293.88
2019-02-18T16:34:36.063Z,101293.03
2019-02-18T16:37:04.931Z,101297.05
2019-02-18T16:39:33.554Z,101298.05
2019-02-18T16:42:02.486Z,101301.91
2019-02-18T16:44:31.192Z,101305.74
2019-02-18T16:46:59.781Z,101299.42
2019-02-18T16:49:28.431Z,101301.70
2019-02-18T16:51:57.077Z,101305.34
2019-02-18T16:54:25.908Z,101299.77
2019-02-18T16:56:54.520Z,101313.23
2019-02-18T16:59:23.097Z,101303.53
2019-02-18T17:01:51.666Z,101301.41
2019-02-18T17:04:20.221Z,101301.53
2019-02-18T17:06:48.767Z,101303.10
2019-02-18T17:09:17.370Z,101300.44
2019-02-18T17:11:45.998Z,101300.03
2019-02-18T17:14:14.606Z,101299.56
2019-02-18T17:16:43.190Z,101296.34
2019-02-18T17:19:11.707Z,101299.97
2019-02-18T17:21:40.332Z,101306.62
2019-02-18T17:24:08.927Z,101304.94
2019-02-18T17:26:37.956Z,101304.77
2019-02-18T17:29:06.585Z,101303.44
2019-02-18T17:31:35.167Z,101311.39
2019-02-18T17:34:03.784Z,101303.13
2019-02-18T17:36:32.422Z,101313.34
2019-02-18T17:39:01.052Z,101309.98
2019-02-18T17:41:29.757Z,101316.83
2019-02-18T17:43:58.424Z,101320.28
2019-02-18T17:46:26.868Z,101322.83
2019-02-18T17:48:55.455Z,101326.38
2019-02-18T17:51:24.091Z,101325.34
2019-02-18T17:53:52.657Z,101320.84
2019-02-18T17:56:21.176Z,101324.87
2019-02-18T17:58:51.046Z,101315.48
2019-02-18T18:01:19.606Z,101324.05
2019-02-18T18:03:48.146Z,101323.81
2019-02-18T18:06:16.764Z,101324.53
2019-02-18T18:08:45.455Z,101330.88
2019-02-18T18:11:14.036Z,101328.86
2019-02-18T18:13:42.974Z,101331.76
2019-02-18T18:16:11.599Z,101332.70
2019-02-18T18:18:40.148Z,101335.90
2019-02-18T18:21:08.798Z,101335.19
2019-02-18T18:23:37.412Z,101336.13
2019-02-18T18:26:06.033Z,101341.34
2019-02-18T18:28:34.520Z,101341.10
2019-02-18T18:31:03.103Z,101341.00
2019-02-18T18:33:31.719Z,101338.09
2019-02-18T18:36:00.337Z,101338.84
2019-02-18T18:38:29.045Z,101343.26
2019-02-18T18:40:57.681Z,101351.97
2019-02-18T18:43:33.636Z,101349.67
2019-02-18T18:45:56.589Z,101349.67
2019-02-18T18:48:25.200Z,101348.59
2019-02-18T18:50:53.790Z,101349.67
2019-02-18T18:53:22.397Z,101351.33
2019-02-18T18:55:50.943Z,101350.60
2019-02-18T18:58:19.632Z,101349.61
2019-02-18T19:00:48.528Z,101350.57
2019-02-18T19:03:17.231Z,101349.90
2019-02-18T19:05:45.779Z,101349.66
2019-02-18T19:08:14.343Z,101351.42
2019-02-18T19:10:43.021Z,101352.91
2019-02-18T19:13:11.704Z,101351.62
2019-02-18T19:15:49.307Z,101352.62
2019-02-18T19:18:11.231Z,101354.02
2019-02-18T19:20:39.811Z,101356.26
2019-02-18T19:23:08.386Z,101365.23
2019-02-18T19:25:37.003Z,101360.46
2019-02-18T19:28:05.538Z,101367.13
2019-02-18T19:30:34.571Z,101367.38
2019-02-18T19:33:06.765Z,101375.69
2019-02-18T19:35:35.416Z,101374.68
2019-02-18T19:38:03.976Z,101379.00
2019-02-18T19:40:32.755Z,101379.39
2019-02-18T19:43:01.374Z,101375.18
2019-02-18T19:45:30.012Z,101375.77
2019-02-18T19:47:58.689Z,101375.53
2019-02-18T19:50:27.280Z,101379.75
2019-02-18T19:52:55.994Z,101383.45
2019-02-18T19:55:25.527Z,101387.39
2019-02-18T19:57:54.211Z,101392.28
2019-02-18T20:00:23.023Z,101393.91
2019-02-18T20:02:51.667Z,101389.55
2019-02-18T20:05:20.261Z,101396.34
2019-02-18T20:07:48.994Z,101396.63
2019-02-18T20:10:17.976Z,101403.98
2019-02-18T20:12:46.659Z,101399.20
2019-02-18T20:15:17.822Z,101392.27
2019-02-18T20:17:46.507Z,101396.10
2019-02-18T20:20:16.511Z,101390.59
2019-02-18T20:22:45.225Z,101396.69
2019-02-18T20:25:14.248Z,101394.98
2019-02-18T20:27:43.059Z,101388.78
2019-02-18T20:30:14.422Z,101400.28
2019-02-18T20:32:43.084Z,101400.09
2019-02-18T20:35:12.006Z,101401.73
2019-02-18T20:37:40.731Z,101396.55
2019-02-18T20:40:11.070Z,101400.67
2019-02-18T20:42:39.966Z,101394.35
2019-02-18T20:45:11.284Z,101397.62
2019-02-18T20:47:39.951Z,101397.52
2019-02-18T20:50:13.564Z,101401.26
2019-02-18T20:52:42.300Z,101392.92
2019-02-18T20:55:14.140Z,101397.95
2019-02-18T20:57:43.971Z,101397.95
2019-02-18T21:00:16.624Z,101396.08
2019-02-18T21:02:45.174Z,101396.45
2019-02-18T21:05:13.763Z,101392.55
2019-02-18T21:07:42.418Z,101394.04
2019-02-18T21:10:17.145Z,101403.42
2019-02-18T21:12:45.823Z,101407.33
2019-02-18T21:15:14.464Z,101403.63
2019-02-18T21:17:43.181Z,101400.13
2019-02-18T21:20:13.484Z,101402.83
2019-02-18T21:22:42.124Z,101405.23
2019-02-18T21:25:11.611Z,101408.03
2019-02-18T21:27:40.312Z,101406.13
2019-02-18T21:30:16.929Z,101406.80
2019-02-18T21:32:45.558Z,101408.42
2019-02-18T21:35:14.165Z,101403.39
2019-02-18T21:37:45.937Z,101404.86
2019-02-18T21:40:14.652Z,101393.75
2019-02-18T21:42:43.271Z,101398.63
2019-02-18T21:45:13.808Z,101402.39
2019-02-18T21:47:43.297Z,101392.23
2019-02-18T21:50:12.828Z,101396.80
2019-02-18T21:52:41.585Z,101406.30
2019-02-18T21:55:11.975Z,101401.73
2019-02-18T21:57:41.291Z,101397.41
2019-02-18T22:00:16.869Z,101400.92
2019-02-18T22:02:45.496Z,101403.16
2019-02-18T22:05:14.623Z,101397.23
2019-02-18T22:07:44.831Z,101408.98
2019-02-18T22:10:15.004Z,101404.96
2019-02-18T22:12:43.682Z,101402.41
2019-02-18T22:15:16.505Z,101406.83
2019-02-18T22:17:45.412Z,101400.91
2019-02-18T22:20:15.115Z,101400.05
2019-02-18T22:22:43.746Z,101401.91
2019-02-18T22:25:13.801Z,101404.97
2019-02-18T22:27:42.360Z,101397.36
2019-02-18T22:30:14.298Z,101398.69
2019-02-18T22:32:42.844Z,101400.30
2019-02-18T22:35:11.572Z,101402.20
2019-02-18T22:37:40.189Z,101409.54
2019-02-18T22:40:12.790Z,101406.60
2019-02-18T22:42:41.353Z,101399.27
2019-02-18T22:45:11.439Z,101406.58
2019-02-18T22:47:40.344Z,101404.55
2019-02-18T22:50:11.171Z,101409.23
2019-02-18T22:52:39.805Z,101409.06
2019-02-18T22:55:09.801Z,101413.08
2019-02-18T22:57:38.562Z,101408.44
2019-02-18T23:00:26.908Z,101409.26
2019-02-18T23:02:55.926Z,101408.13
2019-02-18T23:05:24.429Z,101407.33
2019-02-18T23:07:55.198Z,101409.26
2019-02-18T23:10:23.760Z,101405.49
2019-02-18T23:12:52.404Z,101404.94
2019-02-18T23:15:20.996Z,101402.30
2019-02-18T23:17:49.534Z,101407.80
2019-02-18T23:20:25.723Z,101408.80
2019-02-18T23:22:54.315Z,101406.65
2019-02-18T23:25:22.954Z,101409.66
2019-02-18T23:27:51.664Z,101405.33
2019-02-18T23:30:20.262Z,101397.94
2019-02-18T23:32:49.295Z,101392.27
2019-02-18T23:35:17.827Z,101391.96
2019-02-18T23:37:46.463Z,101398.17
2019-02-18T23:40:15.684Z,101398.32
2019-02-18T23:42:44.417Z,101402.06
2019-02-18T23:45:13.060Z,101400.96
2019-02-18T23:47:41.670Z,101396.34
2019-02-18T23:50:10.540Z,101400.21
2019-02-18T23:52:39.116Z,101399.41
2019-02-18T23:55:07.769Z,101396.95
2019-02-18T23:57:37.442Z,101395.34
